Terminal Aerodrome Forecast
Issued by NWS

Home | Current Version | Previous Version | Text Only | Print | Product List | Glossary On
Versions: 1 2 3 4 5 6 7 8 9 10 11 12
000
FTUS45 KRIW 211733
TAFWRL
TAF
KWRL 211733Z 2118/2218 VRB06KT P6SM BKN060 BKN100
     FM220100 17007KT P6SM SCT080 BKN120
     FM221000 VRB04KT P6SM VCFG FEW006 BKN080
     FM221600 19006KT P6SM BKN090=

USA.gov is the U.S. government's official web portal to all federal, state and local government web resources and services.